LJU weather

Ljubljana Jože Pučnik Airport
Ljubljana, Ljubljana, Slovenia

Public forecast

Using degrees Celsius for public forecast. Weather courtesy of forecast.io.

METAR (pilot weather report)

Retrieved 2019/04/26 01:30 UTC (0 seconds ago):

LJLJ 260130Z 23002KT 9999 FEW060 BKN110 11/10 Q1017 NOSIG

TAF (pilot weather forecast)

Forecast is more than 12 hours old.

Retrieved 2019/04/25 00:06 UTC (1 day ago):

TAF LJLJ 252300Z 2600/2624 30003KT 9999 FEW055 SCT085 BECMG 2609/2612 23010KT SCT050 BKN250 TEMPO 2610/2616 7000 SHRA SCT033TCU BKN045 TEMPO 2616/2624 7000 -RA BKN033 BECMG 2618/2620 23005KT